Amesbury, United Kingdom
Current Conditions -  °F | °C
As of 4:50 AM on Wednesday 26 Nov 2014 (Local Time) from EGDM Reporting Station
Overcast Overcast  
Wind Chill: 40°   Ceiling: 300
Heat Index: 43°   Visibility: 6mi
Dew Point: 43°   Wind: 5mph
Humidity: 100%   Direction: 340°NNW
Pressure: 29.88"   Gusts: NA
Location:  51.17°N, 1.78°W
Report Text: EGDM 260450Z AUTO 34004KT 9999 OVC003/// 06/06 Q1012 REDZ
Loading
Personal Weather Stations






























Interactive Weather Map New forecast layout! Learn more

10-Day Weather Forecast

Advertisements
Track Severe Weather on mobile